Burton, Washington
Current Conditions -  °F | °C
As of 11:53 AM on Wednesday 17 Dec 2014 (Local Time) from KSEA Reporting Station
Overcast Overcast  
Wind Chill: 47°   Ceiling: 4900
Heat Index: 47°   Visibility: 10mi
Dew Point: 40°   Wind: 0mph
Humidity: 77%   Direction: NA
Pressure: 29.84"   Gusts: NA
Location:  47.39°N, 122.46°W
Report Text: KSEA 171953Z 00000KT 10SM BKN049 OVC080 08/04 A2984 RMK AO2 SLP111 T00830044
Loading
Personal Weather Stations






























Interactive Weather Map New forecast layout! Learn more

10-Day Weather Forecast

Advertisements
Track Severe Weather on mobile